Time,TemperatureF,DewpointF,PressureIn,WindDirection,WindDirectionDegrees,WindSpeedMPH,WindSpeedGustMPH,Humidity,HourlyPrecipIn,Conditions,Clouds,dailyrainin,SoftwareType,DateUTC
2013-03-17 00:06:00,53.3,50.5,29.97,SE,134,2.0,5.0,90,0.00,NA,NA,-99.99,VWS Version 10.39,2013-03-17 07:06:00,
2013-03-17 00:16:00,53.4,50.5,29.97,SSE,155,4.0,6.0,90,0.00,NA,NA,-99.99,VWS Version 10.39,2013-03-17 07:16:00,
2013-03-17 00:21:00,53.5,50.6,29.96,SSE,162,7.0,7.0,90,0.00,NA,NA,-99.99,VWS Version 10.39,2013-03-17 07:21:00,
2013-03-17 00:26:00,53.5,50.6,29.96,SSE,147,5.0,6.0,90,0.00,NA,NA,-99.99,VWS Version 10.39,2013-03-17 07:26:00,
2013-03-17 00:36:00,53.5,50.3,29.96,SE,135,6.0,6.0,89,0.00,NA,NA,-99.99,VWS Version 10.39,2013-03-17 07:36:00,
2013-03-17 00:41:00,53.5,50.6,29.96,SSW,206,7.0,10.0,90,0.00,NA,NA,-99.99,VWS Version 10.39,2013-03-17 07:41:00,
2013-03-17 00:46:00,53.6,50.4,29.96,SSE,158,9.0,9.0,89,0.00,NA,NA,-99.99,VWS Version 10.39,2013-03-17 07:46:00,
2013-03-17 00:51:00,53.5,50.3,29.95,SSE,161,7.0,10.0,89,0.00,NA,NA,-99.99,VWS Version 10.39,2013-03-17 07:51:00,
2013-03-17 00:56:00,53.4,50.2,29.95,SE,144,8.0,8.0,89,0.00,NA,NA,-99.99,VWS Version 10.39,2013-03-17 07:56:00,
2013-03-17 01:06:00,53.5,50.3,29.96,SE,126,7.0,7.0,89,0.00,NA,NA,-99.99,VWS Version 10.39,2013-03-17 08:06:00,
2013-03-17 01:11:00,53.5,50.3,29.96,SSW,207,2.0,3.0,89,0.00,NA,NA,-99.99,VWS Version 10.39,2013-03-17 08:11:00,
2013-03-17 01:16:00,53.6,50.7,29.96,West,279,4.0,7.0,90,0.00,NA,NA,-99.99,VWS Version 10.39,2013-03-17 08:16:00,
2013-03-17 01:21:00,53.6,50.4,29.96,SSE,151,5.0,7.0,89,0.00,NA,NA,-99.99,VWS Version 10.39,2013-03-17 08:21:00,
2013-03-17 01:26:00,53.6,50.4,29.96,South,181,2.0,4.0,89,0.00,NA,NA,-99.99,VWS Version 10.39,2013-03-17 08:26:00,
2013-03-17 01:31:00,53.7,50.5,29.96,SE,138,0.0,3.0,89,0.00,NA,NA,-99.99,VWS Version 10.39,2013-03-17 08:31:00,
2013-03-17 01:36:00,53.7,50.5,29.97,SW,215,2.0,4.0,89,0.00,NA,NA,-99.99,VWS Version 10.39,2013-03-17 08:36:00,
2013-03-17 01:41:00,53.7,50.5,29.97,SSW,200,1.0,2.0,89,0.00,NA,NA,-99.99,VWS Version 10.39,2013-03-17 08:41:00,
2013-03-17 01:46:00,53.7,50.5,29.98,SSW,202,1.0,3.0,89,0.00,NA,NA,-99.99,VWS Version 10.39,2013-03-17 08:46:00,
2013-03-17 01:51:00,53.6,50.4,29.98,South,169,3.0,4.0,89,0.00,NA,NA,-99.99,VWS Version 10.39,2013-03-17 08:51:00,
2013-03-17 01:56:00,53.6,50.1,29.98,SSW,207,3.0,5.0,88,0.00,NA,NA,-99.99,VWS Version 10.39,2013-03-17 08:56:00,
2013-03-17 02:06:00,53.6,50.1,29.98,SSE,157,4.0,4.0,88,0.00,NA,NA,-99.99,VWS Version 10.39,2013-03-17 09:06:00,
2013-03-17 02:11:00,53.6,50.1,29.97,SSW,192,4.0,4.0,88,0.00,NA,NA,-99.99,VWS Version 10.39,2013-03-17 09:11:00,
2013-03-17 02:16:00,53.6,50.1,29.97,SSW,196,3.0,4.0,88,0.00,NA,NA,-99.99,VWS Version 10.39,2013-03-17 09:16:00,
2013-03-17 02:21:00,53.6,50.4,29.97,SSW,194,1.0,1.0,89,0.00,NA,NA,-99.99,VWS Version 10.39,2013-03-17 09:21:00,
2013-03-17 02:26:00,53.6,50.1,29.97,SW,215,1.0,1.0,88,0.00,NA,NA,-99.99,VWS Version 10.39,2013-03-17 09:26:00,
2013-03-17 02:31:00,53.6,50.4,29.97,SSW,200,4.0,4.0,89,0.00,NA,NA,-99.99,VWS Version 10.39,2013-03-17 09:31:00,
2013-03-17 02:36:00,53.6,50.1,29.97,SSW,203,1.0,1.0,88,0.00,NA,NA,-99.99,VWS Version 10.39,2013-03-17 09:36:00,
2013-03-17 02:41:00,53.5,50.0,29.97,SSE,158,0.0,0.0,88,0.00,NA,NA,-99.99,VWS Version 10.39,2013-03-17 09:41:00,
2013-03-17 02:46:00,53.6,50.1,29.97,SSW,202,3.0,4.0,88,0.00,NA,NA,-99.99,VWS Version 10.39,2013-03-17 09:46:00,
2013-03-17 02:51:00,53.6,50.1,29.97,SSW,207,0.0,2.0,88,0.00,NA,NA,-99.99,VWS Version 10.39,2013-03-17 09:51:00,
2013-03-17 02:56:00,53.5,50.0,29.97,SW,223,0.0,1.0,88,0.00,NA,NA,-99.99,VWS Version 10.39,2013-03-17 09:56:00,
2013-03-17 03:11:00,53.5,50.0,29.97,South,184,2.0,3.0,88,0.00,NA,NA,-99.99,VWS Version 10.39,2013-03-17 10:11:00,
2013-03-17 03:21:00,53.4,49.9,29.97,South,186,0.0,0.0,88,0.00,NA,NA,-99.99,VWS Version 10.39,2013-03-17 10:21:00,
2013-03-17 03:26:00,53.3,49.8,29.97,SSE,148,0.0,0.0,88,0.00,NA,NA,-99.99,VWS Version 10.39,2013-03-17 10:26:00,
2013-03-17 03:31:00,53.3,49.8,29.96,SSE,159,3.0,4.0,88,0.00,NA,NA,-99.99,VWS Version 10.39,2013-03-17 10:31:00,
2013-03-17 03:36:00,53.3,49.8,29.96,SSE,155,2.0,3.0,88,0.00,NA,NA,-99.99,VWS Version 10.39,2013-03-17 10:36:00,
2013-03-17 03:46:00,53.2,50.0,29.97,SSE,166,0.0,1.0,89,0.00,NA,NA,-99.99,VWS Version 10.39,2013-03-17 10:46:00,
2013-03-17 03:51:00,53.3,50.2,29.97,SSE,157,0.0,1.0,89,0.00,NA,NA,-99.99,VWS Version 10.39,2013-03-17 10:51:00,
2013-03-17 03:56:00,53.3,50.2,29.96,SE,146,4.0,5.0,89,0.00,NA,NA,-99.99,VWS Version 10.39,2013-03-17 10:56:00,
2013-03-17 04:11:00,53.3,50.2,29.96,SSE,167,2.0,2.0,89,0.00,NA,NA,-99.99,VWS Version 10.39,2013-03-17 11:11:00,
2013-03-17 04:16:00,53.3,50.2,29.95,SSE,165,4.0,5.0,89,0.00,NA,NA,-99.99,VWS Version 10.39,2013-03-17 11:16:00,
2013-03-17 04:21:00,53.3,50.2,29.95,South,190,4.0,4.0,89,0.00,NA,NA,-99.99,VWS Version 10.39,2013-03-17 11:21:00,
2013-03-17 04:26:00,53.3,50.2,29.96,SE,146,1.0,3.0,89,0.00,NA,NA,-99.99,VWS Version 10.39,2013-03-17 11:26:00,
2013-03-17 04:36:00,53.3,50.2,29.95,SSE,148,4.0,4.0,89,0.00,NA,NA,-99.99,VWS Version 10.39,2013-03-17 11:36:00,
2013-03-17 04:41:00,53.3,50.2,29.95,SSE,149,7.0,8.0,89,0.00,NA,NA,-99.99,VWS Version 10.39,2013-03-17 11:41:00,
2013-03-17 04:46:00,53.2,50.0,29.95,South,175,2.0,3.0,89,0.00,NA,NA,-99.99,VWS Version 10.39,2013-03-17 11:46:00,
2013-03-17 04:51:00,53.2,50.0,29.95,SSE,152,3.0,4.0,89,0.00,NA,NA,-99.99,VWS Version 10.39,2013-03-17 11:51:00,
2013-03-17 04:56:00,53.2,50.0,29.95,SSE,150,4.0,5.0,89,0.00,NA,NA,-99.99,VWS Version 10.39,2013-03-17 11:56:00,
2013-03-17 05:06:00,53.2,50.0,29.95,South,185,5.0,5.0,89,0.00,NA,NA,-99.99,VWS Version 10.39,2013-03-17 12:06:00,
2013-03-17 05:11:00,53.2,49.7,29.95,SSE,155,6.0,7.0,88,0.00,NA,NA,-99.99,VWS Version 10.39,2013-03-17 12:11:00,
2013-03-17 05:16:00,53.3,49.8,29.96,SSE,157,4.0,4.0,88,0.00,NA,NA,-99.99,VWS Version 10.39,2013-03-17 12:16:00,
2013-03-17 05:21:00,53.3,49.8,29.96,SSE,151,0.0,1.0,88,0.00,NA,NA,-99.99,VWS Version 10.39,2013-03-17 12:21:00,
2013-03-17 05:26:00,53.4,49.9,29.96,SSE,152,3.0,4.0,88,0.00,NA,NA,-99.99,VWS Version 10.39,2013-03-17 12:26:00,
2013-03-17 05:31:00,53.4,49.9,29.96,SSE,156,3.0,4.0,88,0.00,NA,NA,-99.99,VWS Version 10.39,2013-03-17 12:31:00,
2013-03-17 05:36:00,53.5,50.0,29.96,SE,140,3.0,3.0,88,0.00,NA,NA,-99.99,VWS Version 10.39,2013-03-17 12:36:00,
2013-03-17 05:41:00,53.4,49.9,29.96,SSE,153,1.0,2.0,88,0.00,NA,NA,-99.99,VWS Version 10.39,2013-03-17 12:41:00,
2013-03-17 05:46:00,53.4,49.9,29.96,SSE,157,2.0,4.0,88,0.00,NA,NA,-99.99,VWS Version 10.39,2013-03-17 12:46:00,
2013-03-17 05:51:00,53.5,49.7,29.96,ESE,123,2.0,2.0,87,0.00,NA,NA,-99.99,VWS Version 10.39,2013-03-17 12:51:00,
2013-03-17 05:56:00,53.4,49.6,29.97,SSE,166,0.0,0.0,87,0.00,NA,NA,-99.99,VWS Version 10.39,2013-03-17 12:56:00,
2013-03-17 06:11:00,53.4,49.6,29.97,SSE,166,0.0,0.0,87,0.00,NA,NA,-99.99,VWS Version 10.39,2013-03-17 13:11:00,
2013-03-17 06:16:00,53.4,49.6,29.97,SSE,166,0.0,0.0,87,0.00,NA,NA,-99.99,VWS Version 10.39,2013-03-17 13:16:00,
2013-03-17 06:21:00,53.4,49.6,29.97,SSW,209,0.0,0.0,87,0.00,NA,NA,-99.99,VWS Version 10.39,2013-03-17 13:21:00,
2013-03-17 06:26:00,53.4,49.6,29.97,SSW,209,0.0,0.0,87,0.00,NA,NA,-99.99,VWS Version 10.39,2013-03-17 13:26:00,
2013-03-17 06:31:00,53.4,49.6,29.97,SSE,161,0.0,1.0,87,0.00,NA,NA,-99.99,VWS Version 10.39,2013-03-17 13:31:00,
2013-03-17 06:36:00,53.4,49.6,29.97,SSW,202,0.0,0.0,87,0.00,NA,NA,-99.99,VWS Version 10.39,2013-03-17 13:36:00,
2013-03-17 06:41:00,53.4,49.6,29.97,SSE,158,0.0,0.0,87,0.00,NA,NA,-99.99,VWS Version 10.39,2013-03-17 13:41:00,
2013-03-17 06:46:00,53.4,49.6,29.98,SSE,158,0.0,1.0,87,0.00,NA,NA,-99.99,VWS Version 10.39,2013-03-17 13:46:00,
2013-03-17 06:51:00,53.4,49.6,29.98,SSE,158,0.0,0.0,87,0.00,NA,NA,-99.99,VWS Version 10.39,2013-03-17 13:51:00,
2013-03-17 06:56:00,53.4,49.6,29.98,SSE,162,0.0,0.0,87,0.00,NA,NA,-99.99,VWS Version 10.39,2013-03-17 13:56:00,
2013-03-17 07:11:00,53.4,49.3,29.98,SSE,160,2.0,2.0,86,0.00,NA,NA,-99.99,VWS Version 10.39,2013-03-17 14:11:00,
2013-03-17 07:16:00,53.5,49.7,29.99,ENE,78,2.0,3.0,87,0.00,NA,NA,-99.99,VWS Version 10.39,2013-03-17 14:16:00,
2013-03-17 07:21:00,53.5,49.4,29.99,ENE,69,3.0,3.0,86,0.00,NA,NA,-99.99,VWS Version 10.39,2013-03-17 14:21:00,
2013-03-17 07:26:00,53.4,49.3,29.98,ENE,64,2.0,2.0,86,0.00,NA,NA,-99.99,VWS Version 10.39,2013-03-17 14:26:00,
2013-03-17 07:31:00,53.4,49.3,29.98,East,96,2.0,2.0,86,0.00,NA,NA,-99.99,VWS Version 10.39,2013-03-17 14:31:00,
2013-03-17 07:41:00,53.4,49.3,29.98,ENE,78,0.0,1.0,86,0.00,NA,NA,-99.99,VWS Version 10.39,2013-03-17 14:41:00,
2013-03-17 07:46:00,53.4,49.3,29.98,ENE,78,0.0,1.0,86,0.00,NA,NA,-99.99,VWS Version 10.39,2013-03-17 14:46:00,
2013-03-17 08:06:00,53.4,49.3,29.99,NE,34,1.0,1.0,86,0.00,NA,NA,-99.99,VWS Version 10.39,2013-03-17 15:06:00,
2013-03-17 08:11:00,53.5,49.4,29.99,NE,39,0.0,0.0,86,0.00,NA,NA,-99.99,VWS Version 10.39,2013-03-17 15:11:00,
2013-03-17 08:16:00,53.6,49.5,29.99,ENE,73,1.0,2.0,86,0.00,NA,NA,-99.99,VWS Version 10.39,2013-03-17 15:16:00,
2013-03-17 08:21:00,53.7,49.6,30.00,ENE,74,1.0,1.0,86,0.00,NA,NA,-99.99,VWS Version 10.39,2013-03-17 15:21:00,
2013-03-17 08:26:00,53.8,49.4,30.00,ENE,69,2.0,2.0,85,0.00,NA,NA,-99.99,VWS Version 10.39,2013-03-17 15:26:00,
2013-03-17 08:31:00,53.9,49.5,30.00,ENE,58,0.0,0.0,85,0.00,NA,NA,-99.99,VWS Version 10.39,2013-03-17 15:31:00,
2013-03-17 08:36:00,54.0,49.6,30.00,NE,40,2.0,4.0,85,0.00,NA,NA,-99.99,VWS Version 10.39,2013-03-17 15:36:00,
2013-03-17 08:46:00,54.1,49.4,30.01,East,86,6.0,6.0,84,0.00,NA,NA,-99.99,VWS Version 10.39,2013-03-17 15:46:00,
2013-03-17 08:56:00,54.4,49.3,30.00,East,80,2.0,2.0,83,0.00,NA,NA,-99.99,VWS Version 10.39,2013-03-17 15:56:00,
2013-03-17 09:21:00,54.9,49.8,30.01,SSE,161,3.0,3.0,83,0.00,NA,NA,-99.99,VWS Version 10.39,2013-03-17 16:21:00,
2013-03-17 09:31:00,55.2,49.8,30.01,SW,223,0.0,1.0,82,0.00,NA,NA,-99.99,VWS Version 10.39,2013-03-17 16:31:00,
2013-03-17 09:36:00,55.5,50.1,30.01,SSE,163,2.0,3.0,82,0.00,NA,NA,-99.99,VWS Version 10.39,2013-03-17 16:36:00,
2013-03-17 09:41:00,55.9,50.2,30.01,SSW,194,3.0,5.0,81,0.00,NA,NA,-99.99,VWS Version 10.39,2013-03-17 16:41:00,
2013-03-17 09:46:00,56.4,50.7,30.01,SSE,161,3.0,6.0,81,0.00,NA,NA,-99.99,VWS Version 10.39,2013-03-17 16:46:00,
2013-03-17 09:51:00,56.6,50.2,30.00,South,186,0.0,2.0,79,0.00,NA,NA,-99.99,VWS Version 10.39,2013-03-17 16:51:00,
2013-03-17 09:56:00,56.9,50.1,30.00,SE,146,2.0,5.0,78,0.00,NA,NA,-99.99,VWS Version 10.39,2013-03-17 16:56:00,
2013-03-17 10:11:00,58.2,50.7,30.01,South,190,3.0,3.0,76,0.00,NA,NA,-99.99,VWS Version 10.39,2013-03-17 17:11:00,
2013-03-17 10:16:00,58.6,51.1,30.01,South,190,2.0,4.0,76,0.00,NA,NA,-99.99,VWS Version 10.39,2013-03-17 17:16:00,
2013-03-17 10:21:00,58.8,50.9,30.01,SSW,209,6.0,6.0,75,0.00,NA,NA,-99.99,VWS Version 10.39,2013-03-17 17:21:00,
2013-03-17 10:26:00,58.7,50.8,30.01,SW,230,3.0,3.0,75,0.00,NA,NA,-99.99,VWS Version 10.39,2013-03-17 17:26:00,
2013-03-17 10:31:00,59.0,50.7,30.01,SSW,212,2.0,5.0,74,0.00,NA,NA,-99.99,VWS Version 10.39,2013-03-17 17:31:00,
2013-03-17 10:36:00,59.1,50.8,30.01,SSW,206,4.0,5.0,74,0.00,NA,NA,-99.99,VWS Version 10.39,2013-03-17 17:36:00,
2013-03-17 10:41:00,59.1,51.2,30.01,West,266,2.0,3.0,75,0.00,NA,NA,-99.99,VWS Version 10.39,2013-03-17 17:41:00,
2013-03-17 11:26:00,59.3,50.7,30.01,West,264,3.0,3.0,73,0.00,NA,NA,-99.99,VWS Version 10.39,2013-03-17 18:26:00,
2013-03-17 11:31:00,59.3,50.7,30.01,West,265,4.0,4.0,73,0.00,NA,NA,-99.99,VWS Version 10.39,2013-03-17 18:31:00,
2013-03-17 11:36:00,59.4,51.1,30.01,SE,140,1.0,3.0,74,0.00,NA,NA,-99.99,VWS Version 10.39,2013-03-17 18:36:00,
2013-03-17 11:41:00,59.8,51.5,30.01,SSW,202,5.0,6.0,74,0.00,NA,NA,-99.99,VWS Version 10.39,2013-03-17 18:41:00,
2013-03-17 11:46:00,60.3,51.6,30.01,WSW,245,2.0,3.0,73,0.00,NA,NA,-99.99,VWS Version 10.39,2013-03-17 18:46:00,
2013-03-17 11:51:00,60.6,51.5,30.01,SW,227,1.0,2.0,72,0.00,NA,NA,-99.99,VWS Version 10.39,2013-03-17 18:51:00,
2013-03-17 11:56:00,60.6,51.2,30.01,West,260,5.0,6.0,71,0.00,NA,NA,-99.99,VWS Version 10.39,2013-03-17 18:56:00,
2013-03-17 12:06:00,60.4,51.7,30.01,West,274,5.0,6.0,73,0.00,NA,NA,-99.99,VWS Version 10.39,2013-03-17 19:06:00,
2013-03-17 12:11:00,60.6,51.9,30.02,West,260,4.0,6.0,73,0.00,NA,NA,-99.99,VWS Version 10.39,2013-03-17 19:11:00,
2013-03-17 12:26:00,60.5,51.4,30.01,NW,313,2.0,4.0,72,0.00,NA,NA,-99.99,VWS Version 10.39,2013-03-17 19:26:00,
2013-03-17 12:31:00,60.5,51.8,30.01,WSW,257,4.0,4.0,73,0.00,NA,NA,-99.99,VWS Version 10.39,2013-03-17 19:31:00,
2013-03-17 12:36:00,60.3,51.2,30.01,WSW,244,1.0,4.0,72,0.00,NA,NA,-99.99,VWS Version 10.39,2013-03-17 19:36:00,
2013-03-17 12:41:00,60.2,51.9,30.01,West,271,2.0,4.0,74,0.00,NA,NA,-99.99,VWS Version 10.39,2013-03-17 19:41:00,
2013-03-17 12:51:00,60.2,51.9,30.01,NNW,335,2.0,4.0,74,0.00,NA,NA,-99.99,VWS Version 10.39,2013-03-17 19:51:00,
2013-03-17 12:56:00,60.4,52.1,30.00,West,273,6.0,6.0,74,0.00,NA,NA,-99.99,VWS Version 10.39,2013-03-17 19:56:00,
2013-03-17 13:06:00,61.1,52.0,30.00,SW,235,5.0,7.0,72,0.00,NA,NA,-99.99,VWS Version 10.39,2013-03-17 20:06:00,
2013-03-17 13:11:00,61.1,52.0,30.00,SSW,202,3.0,5.0,72,0.00,NA,NA,-99.99,VWS Version 10.39,2013-03-17 20:11:00,
2013-03-17 13:16:00,61.0,52.3,30.00,NW,322,2.0,2.0,73,0.00,NA,NA,-99.99,VWS Version 10.39,2013-03-17 20:16:00,
2013-03-17 13:21:00,61.1,52.4,30.00,WSW,247,4.0,5.0,73,0.00,NA,NA,-99.99,VWS Version 10.39,2013-03-17 20:21:00,
2013-03-17 13:26:00,61.3,52.2,30.00,NW,323,2.0,3.0,72,0.00,NA,NA,-99.99,VWS Version 10.39,2013-03-17 20:26:00,
2013-03-17 13:31:00,61.5,52.8,30.00,NNW,327,3.0,3.0,73,0.00,NA,NA,-99.99,VWS Version 10.39,2013-03-17 20:31:00,
2013-03-17 13:41:00,61.0,51.9,29.99,NW,313,1.0,5.0,72,0.00,NA,NA,-99.99,VWS Version 10.39,2013-03-17 20:41:00,
2013-03-17 13:51:00,61.0,51.9,29.98,NW,312,1.0,4.0,72,0.00,NA,NA,-99.99,VWS Version 10.39,2013-03-17 20:51:00,
2013-03-17 13:56:00,61.3,52.6,29.99,North,360,1.0,5.0,73,0.00,NA,NA,-99.99,VWS Version 10.39,2013-03-17 20:56:00,
2013-03-17 14:21:00,61.3,52.2,29.97,SSW,210,1.0,3.0,72,0.00,NA,NA,-99.99,VWS Version 10.39,2013-03-17 21:21:00,
2013-03-17 14:31:00,61.2,52.1,29.97,NW,311,2.0,6.0,72,0.00,NA,NA,-99.99,VWS Version 10.39,2013-03-17 21:31:00,
2013-03-17 15:21:00,61.6,52.1,29.96,North,355,1.0,4.0,71,0.00,NA,NA,-99.99,VWS Version 10.39,2013-03-17 22:21:00,
2013-03-17 15:26:00,61.4,52.3,29.96,SE,142,1.0,2.0,72,0.00,NA,NA,-99.99,VWS Version 10.39,2013-03-17 22:26:00,
2013-03-17 15:31:00,61.6,52.1,29.95,SW,231,5.0,7.0,71,0.00,NA,NA,-99.99,VWS Version 10.39,2013-03-17 22:31:00,
2013-03-17 15:41:00,61.8,53.1,29.96,South,178,3.0,3.0,73,0.00,NA,NA,-99.99,VWS Version 10.39,2013-03-17 22:41:00,
2013-03-17 15:46:00,62.3,52.4,29.96,South,188,4.0,6.0,70,0.00,NA,NA,-99.99,VWS Version 10.39,2013-03-17 22:46:00,
2013-03-17 15:51:00,61.7,52.2,29.96,NW,319,3.0,6.0,71,0.00,NA,NA,-99.99,VWS Version 10.39,2013-03-17 22:51:00,
2013-03-17 15:56:00,61.4,52.3,29.96,South,179,4.0,6.0,72,0.00,NA,NA,-99.99,VWS Version 10.39,2013-03-17 22:56:00,
2013-03-17 16:01:00,61.4,52.3,29.96,SW,215,3.0,4.0,72,0.00,NA,NA,-99.99,VWS Version 10.39,2013-03-17 23:01:00,
2013-03-17 16:06:00,61.6,52.5,29.96,SW,234,2.0,3.0,72,0.00,NA,NA,-99.99,VWS Version 10.39,2013-03-17 23:06:00,
2013-03-17 16:11:00,61.5,52.0,29.96,SW,223,1.0,4.0,71,0.00,NA,NA,-99.99,VWS Version 10.39,2013-03-17 23:11:00,
2013-03-17 16:16:00,61.4,52.3,29.97,SSW,192,4.0,4.0,72,0.00,NA,NA,-99.99,VWS Version 10.39,2013-03-17 23:16:00,
2013-03-17 16:21:00,61.1,52.4,29.97,North,5,3.0,3.0,73,0.00,NA,NA,-99.99,VWS Version 10.39,2013-03-17 23:21:00,
2013-03-17 16:26:00,61.3,52.6,29.97,North,355,2.0,4.0,73,0.00,NA,NA,-99.99,VWS Version 10.39,2013-03-17 23:26:00,
2013-03-17 16:36:00,61.7,53.0,29.97,SW,227,3.0,5.0,73,0.00,NA,NA,-99.99,VWS Version 10.39,2013-03-17 23:36:00,
2013-03-17 16:41:00,61.7,52.6,29.97,South,183,2.0,2.0,72,0.00,NA,NA,-99.99,VWS Version 10.39,2013-03-17 23:41:00,
2013-03-17 16:51:00,61.5,52.4,29.97,NW,308,3.0,3.0,72,0.00,NA,NA,-99.99,VWS Version 10.39,2013-03-17 23:51:00,
2013-03-17 16:56:00,61.4,52.7,29.97,NW,320,2.0,4.0,73,0.00,NA,NA,-99.99,VWS Version 10.39,2013-03-17 23:56:00,
2013-03-17 17:01:00,61.2,52.5,29.97,West,259,3.0,3.0,73,0.00,NA,NA,-99.99,VWS Version 10.39,2013-03-18 00:01:00,
2013-03-17 17:06:00,61.3,52.6,29.97,SSE,155,0.0,2.0,73,0.00,NA,NA,-99.99,VWS Version 10.39,2013-03-18 00:06:00,
2013-03-17 17:11:00,61.3,52.2,29.97,WSW,252,0.0,0.0,72,0.00,NA,NA,-99.99,VWS Version 10.39,2013-03-18 00:11:00,
2013-03-17 17:16:00,61.1,52.4,29.97,NW,304,2.0,4.0,73,0.00,NA,NA,-99.99,VWS Version 10.39,2013-03-18 00:16:00,
2013-03-17 17:21:00,60.7,52.0,29.97,SSW,211,5.0,5.0,73,0.00,NA,NA,-99.99,VWS Version 10.39,2013-03-18 00:21:00,
2013-03-17 17:26:00,60.6,52.3,29.97,SW,217,2.0,4.0,74,0.00,NA,NA,-99.99,VWS Version 10.39,2013-03-18 00:26:00,
2013-03-17 17:31:00,60.3,52.0,29.97,WSW,240,2.0,3.0,74,0.00,NA,NA,-99.99,VWS Version 10.39,2013-03-18 00:31:00,
2013-03-17 17:36:00,60.4,52.5,29.97,West,279,1.0,1.0,75,0.00,NA,NA,-99.99,VWS Version 10.39,2013-03-18 00:36:00,
2013-03-17 17:46:00,60.7,52.4,29.97,SSE,166,0.0,3.0,74,0.00,NA,NA,-99.99,VWS Version 10.39,2013-03-18 00:46:00,
2013-03-17 17:51:00,60.9,52.6,29.97,SSW,211,2.0,2.0,74,0.00,NA,NA,-99.99,VWS Version 10.39,2013-03-18 00:51:00,
2013-03-17 17:56:00,60.8,52.5,29.97,SSW,197,0.0,2.0,74,0.00,NA,NA,-99.99,VWS Version 10.39,2013-03-18 00:56:00,
2013-03-17 18:06:00,60.2,52.3,29.96,SSW,205,1.0,2.0,75,0.00,NA,NA,-99.99,VWS Version 10.39,2013-03-18 01:06:00,
2013-03-17 18:11:00,59.6,52.0,29.96,SSW,201,2.0,5.0,76,0.00,NA,NA,-99.99,VWS Version 10.39,2013-03-18 01:11:00,
2013-03-17 18:16:00,59.1,51.9,29.96,South,191,4.0,5.0,77,0.00,NA,NA,-99.99,VWS Version 10.39,2013-03-18 01:16:00,
2013-03-17 18:21:00,58.7,51.9,29.97,South,182,5.0,5.0,78,0.00,NA,NA,-99.99,VWS Version 10.39,2013-03-18 01:21:00,
2013-03-17 18:26:00,58.4,51.9,29.97,SSW,194,1.0,3.0,79,0.00,NA,NA,-99.99,VWS Version 10.39,2013-03-18 01:26:00,
2013-03-17 19:26:00,56.0,51.6,29.98,South,179,2.0,2.0,85,0.00,NA,NA,-99.99,VWS Version 10.39,2013-03-18 02:26:00,
2013-03-17 19:31:00,56.0,51.6,29.98,SSW,195,1.0,1.0,85,0.00,NA,NA,-99.99,VWS Version 10.39,2013-03-18 02:31:00,
2013-03-17 19:36:00,56.0,51.6,29.99,SSW,206,1.0,2.0,85,0.00,NA,NA,-99.99,VWS Version 10.39,2013-03-18 02:36:00,
2013-03-17 19:41:00,55.9,51.5,29.99,South,169,4.0,4.0,85,0.00,NA,NA,-99.99,VWS Version 10.39,2013-03-18 02:41:00,
2013-03-17 19:51:00,56.0,51.6,29.99,WSW,242,1.0,1.0,85,0.00,NA,NA,-99.99,VWS Version 10.39,2013-03-18 02:51:00,
2013-03-17 19:56:00,56.0,51.2,29.99,SE,142,2.0,2.0,84,0.00,NA,NA,-99.99,VWS Version 10.39,2013-03-18 02:56:00,
2013-03-17 20:06:00,56.0,51.2,29.99,SSE,161,5.0,6.0,84,0.00,NA,NA,-99.99,VWS Version 10.39,2013-03-18 03:06:00,
2013-03-17 20:16:00,56.1,51.3,29.98,SSE,156,4.0,4.0,84,0.00,NA,NA,-99.99,VWS Version 10.39,2013-03-18 03:16:00,
2013-03-17 20:21:00,56.1,51.3,29.98,SSE,150,7.0,8.0,84,0.00,NA,NA,-99.99,VWS Version 10.39,2013-03-18 03:21:00,
2013-03-17 20:26:00,56.0,51.2,29.98,SSE,148,0.0,0.0,84,0.00,NA,NA,-99.99,VWS Version 10.39,2013-03-18 03:26:00,
2013-03-17 20:31:00,56.0,51.2,29.98,SSW,195,1.0,4.0,84,0.00,NA,NA,-99.99,VWS Version 10.39,2013-03-18 03:31:00,
2013-03-17 20:36:00,56.0,51.2,29.98,South,175,6.0,7.0,84,0.00,NA,NA,-99.99,VWS Version 10.39,2013-03-18 03:36:00,
2013-03-17 20:41:00,55.9,51.1,29.98,SE,132,3.0,4.0,84,0.00,NA,NA,-99.99,VWS Version 10.39,2013-03-18 03:41:00,
2013-03-17 20:46:00,55.9,51.1,29.98,SE,138,5.0,8.0,84,0.00,NA,NA,-99.99,VWS Version 10.39,2013-03-18 03:46:00,
2013-03-17 20:51:00,55.8,51.0,29.98,SSE,147,8.0,10.0,84,0.00,NA,NA,-99.99,VWS Version 10.39,2013-03-18 03:51:00,
2013-03-17 20:56:00,55.7,51.3,29.98,SE,126,6.0,6.0,85,0.00,NA,NA,-99.99,VWS Version 10.39,2013-03-18 03:56:00,
2013-03-17 21:06:00,55.7,51.3,29.99,SW,215,3.0,3.0,85,0.00,NA,NA,-99.99,VWS Version 10.39,2013-03-18 04:06:00,
2013-03-17 21:11:00,55.7,51.3,29.99,SSW,195,4.0,4.0,85,0.00,NA,NA,-99.99,VWS Version 10.39,2013-03-18 04:11:00,
2013-03-17 21:16:00,55.8,51.4,29.99,East,88,2.0,3.0,85,0.00,NA,NA,-99.99,VWS Version 10.39,2013-03-18 04:16:00,
2013-03-17 21:21:00,55.8,51.4,29.99,SW,216,4.0,4.0,85,0.00,NA,NA,-99.99,VWS Version 10.39,2013-03-18 04:21:00,
2013-03-17 21:26:00,55.8,51.4,29.99,SE,130,4.0,4.0,85,0.00,NA,NA,-99.99,VWS Version 10.39,2013-03-18 04:26:00,
2013-03-17 21:31:00,55.8,51.4,29.99,SSE,153,5.0,5.0,85,0.00,NA,NA,-99.99,VWS Version 10.39,2013-03-18 04:31:00,
2013-03-17 21:36:00,55.7,51.3,29.99,South,176,4.0,4.0,85,0.00,NA,NA,-99.99,VWS Version 10.39,2013-03-18 04:36:00,
2013-03-17 21:41:00,55.6,51.2,29.99,SSE,157,10.0,10.0,85,0.00,NA,NA,-99.99,VWS Version 10.39,2013-03-18 04:41:00,
2013-03-17 21:46:00,55.5,51.1,30.00,SSE,163,0.0,3.0,85,0.00,NA,NA,-99.99,VWS Version 10.39,2013-03-18 04:46:00,
2013-03-17 21:51:00,55.6,51.2,30.00,SSE,160,3.0,5.0,85,0.00,NA,NA,-99.99,VWS Version 10.39,2013-03-18 04:51:00,
2013-03-17 21:56:00,55.7,51.3,30.00,South,183,2.0,7.0,85,0.00,NA,NA,-99.99,VWS Version 10.39,2013-03-18 04:56:00,
2013-03-17 22:06:00,55.6,51.2,30.00,South,184,3.0,3.0,85,0.00,NA,NA,-99.99,VWS Version 10.39,2013-03-18 05:06:00,
2013-03-17 22:11:00,55.6,51.2,30.00,SSW,199,0.0,0.0,85,0.00,NA,NA,-99.99,VWS Version 10.39,2013-03-18 05:11:00,
2013-03-17 22:21:00,55.6,51.2,30.00,SSE,153,6.0,6.0,85,0.00,NA,NA,-99.99,VWS Version 10.39,2013-03-18 05:21:00,
2013-03-17 22:26:00,55.6,51.2,30.01,SE,133,1.0,2.0,85,0.00,NA,NA,-99.99,VWS Version 10.39,2013-03-18 05:26:00,
2013-03-17 22:31:00,55.6,51.2,30.00,SE,140,2.0,2.0,85,0.00,NA,NA,-99.99,VWS Version 10.39,2013-03-18 05:31:00,
2013-03-17 22:36:00,55.6,51.2,30.00,ESE,118,5.0,7.0,85,0.00,NA,NA,-99.99,VWS Version 10.39,2013-03-18 05:36:00,
2013-03-17 22:41:00,55.6,51.2,30.00,SSE,156,4.0,5.0,85,0.00,NA,NA,-99.99,VWS Version 10.39,2013-03-18 05:41:00,
2013-03-17 22:46:00,55.6,51.2,30.00,South,175,4.0,4.0,85,0.00,NA,NA,-99.99,VWS Version 10.39,2013-03-18 05:46:00,
2013-03-17 22:56:00,55.5,51.1,30.00,SSE,166,4.0,5.0,85,0.00,NA,NA,-99.99,VWS Version 10.39,2013-03-18 05:56:00,
2013-03-17 23:31:00,55.5,51.1,30.01,SSE,161,3.0,4.0,85,0.00,NA,NA,-99.99,VWS Version 10.39,2013-03-18 06:31:00,
2013-03-17 23:36:00,55.5,51.1,30.01,SSE,163,12.0,12.0,85,0.00,NA,NA,-99.99,VWS Version 10.39,2013-03-18 06:36:00,
2013-03-17 23:46:00,55.3,51.2,30.01,SSE,148,4.0,7.0,86,0.00,NA,NA,-99.99,VWS Version 10.39,2013-03-18 06:46:00,
2013-03-17 23:51:00,55.3,51.2,30.01,SE,129,3.0,5.0,86,0.00,NA,NA,-99.99,VWS Version 10.39,2013-03-18 06:51:00,